Time;durP1;ratioP1;P1;durP2;ratioP2;P2;SDS_P1;SDS_P2;PMS_P1;PMS_P2;Temp;Humidity;BMP_temperature;BMP_pressure;BME280_temperature;BME280_humidity;BME280_pressure;Samples;Min_cycle;Max_cycle;Signal;HPM_P1;HPM_P2
2022/08/03 00:02:13;;;;;;;4.75;3.15;;;;;;;20.69;66.47;100884.38;4864219;29;20052;-86
2022/08/03 00:04:40;;;;;;;3.55;3.10;;;;;;;20.66;66.51;100880.97;4866554;29;20047;-87
2022/08/03 00:07:07;;;;;;;2.33;2.22;;;;;;;20.63;66.64;100880.22;4877227;29;20037;-86
2022/08/03 00:09:33;;;;;;;3.47;3.05;;;;;;;20.62;67.02;100883.81;4883996;29;20167;-86
2022/08/03 00:12:00;;;;;;;3.22;2.92;;;;;;;20.59;67.06;100878.66;4880370;29;20209;-86
2022/08/03 00:14:27;;;;;;;2.88;2.63;;;;;;;20.55;67.37;100880.59;4866288;29;20412;-85
2022/08/03 00:16:54;;;;;;;3.40;3.15;;;;;;;20.50;67.59;100878.13;4867488;29;20075;-85
2022/08/03 00:19:21;;;;;;;2.97;2.78;;;;;;;20.48;67.89;100879.13;4868969;29;20068;-87
2022/08/03 00:21:48;;;;;;;3.30;3.03;;;;;;;20.45;67.90;100873.97;4883968;29;20048;-85
2022/08/03 00:24:14;;;;;;;9.23;3.22;;;;;;;20.41;68.49;100875.06;4877646;29;20049;-85
2022/08/03 00:26:41;;;;;;;2.85;2.65;;;;;;;20.37;68.46;100871.69;4861292;29;20060;-86
2022/08/03 00:29:08;;;;;;;2.55;2.35;;;;;;;20.32;68.86;100869.25;4862487;29;20053;-86
2022/08/03 00:31:34;;;;;;;3.47;3.17;;;;;;;20.30;69.09;100873.75;4865233;29;20595;-86
2022/08/03 00:34:01;;;;;;;3.25;2.78;;;;;;;20.27;69.16;100865.94;4864251;29;20136;-86
2022/08/03 00:36:28;;;;;;;2.65;2.53;;;;;;;20.22;69.33;100870.59;4880648;29;20519;-85
2022/08/03 00:38:56;;;;;;;2.85;2.65;;;;;;;20.20;69.59;100864.47;4871217;29;20033;-83
2022/08/03 00:41:23;;;;;;;2.83;2.63;;;;;;;20.16;69.38;100869.06;4861305;29;20045;-86
2022/08/03 00:43:49;;;;;;;2.42;2.30;;;;;;;20.12;69.39;100878.13;4876042;29;20052;-85
2022/08/03 00:46:16;;;;;;;2.92;2.72;;;;;;;20.12;69.72;100869.31;4878133;29;20056;-86
2022/08/03 00:48:43;;;;;;;4.22;2.90;;;;;;;20.07;69.81;100861.53;4881117;29;20384;-85
2022/08/03 00:51:09;;;;;;;3.42;3.13;;;;;;;20.06;69.95;100862.44;4867034;29;20052;-86
2022/08/03 00:53:38;;;;;;;3.63;2.67;;;;;;;20.03;70.17;100861.75;4875649;29;20049;-86
2022/08/03 00:56:05;;;;;;;7.50;2.92;;;;;;;20.03;70.22;100864.41;4892824;29;20052;-87
2022/08/03 00:58:31;;;;;;;2.90;2.70;;;;;;;19.99;70.53;100866.31;4876703;29;20103;-86
2022/08/03 01:00:58;;;;;;;2.85;2.67;;;;;;;19.97;70.47;100861.09;4844415;29;20045;-86
2022/08/03 01:03:25;;;;;;;3.10;2.75;;;;;;;19.93;70.49;100862.16;4848579;29;20121;-85
2022/08/03 01:06:01;;;;;;;2.58;2.38;;;;;;;19.91;70.73;100858.69;4861849;29;20053;-84
2022/08/03 01:09:09;;;;;;;3.03;2.72;;;;;;;19.88;71.02;100857.97;4859095;29;20048;-85
2022/08/03 01:12:04;;;;;;;5.07;3.15;;;;;;;19.84;71.28;100849.25;4843941;29;20049;-85
2022/08/03 01:15:22;;;;;;;3.20;2.38;;;;;;;19.81;71.24;100860.88;4848719;29;20053;-86
2022/08/03 01:17:56;;;;;;;4.18;3.65;;;;;;;19.79;71.31;100859.19;4870093;29;20053;-85
2022/08/03 01:20:31;;;;;;;3.38;2.72;;;;;;;19.77;71.42;100861.94;4861030;29;20055;-84
2022/08/03 01:23:35;;;;;;;3.97;3.13;;;;;;;19.74;71.77;100864.72;4874047;29;20049;-86
2022/08/03 01:26:40;;;;;;;4.07;3.20;;;;;;;19.71;71.87;100861.34;4857962;29;20049;-86
2022/08/03 01:29:33;;;;;;;3.00;2.80;;;;;;;19.65;71.83;100858.03;4862918;29;20136;-86
2022/08/03 01:32:11;;;;;;;3.33;3.13;;;;;;;19.62;71.98;100855.50;4865098;29;20059;-86
2022/08/03 01:35:01;;;;;;;2.40;2.25;;;;;;;19.60;72.10;100857.34;4859932;29;20384;-86
2022/08/03 01:37:44;;;;;;;3.45;3.15;;;;;;;19.58;72.23;100855.69;4868661;29;20068;-86
2022/08/03 01:40:14;;;;;;;4.05;2.72;;;;;;;19.54;72.16;100857.63;4859193;29;20441;-86
2022/08/03 01:42:43;;;;;;;3.50;3.20;;;;;;;19.51;72.36;100850.66;4861963;29;20052;-85
2022/08/03 01:45:14;;;;;;;3.10;2.90;;;;;;;19.51;72.52;100852.44;4863917;29;20387;-85
2022/08/03 01:47:44;;;;;;;3.15;2.95;;;;;;;19.48;72.77;100865.88;4857646;29;20053;-85
2022/08/03 01:50:13;;;;;;;2.33;2.13;;;;;;;19.45;72.45;100858.00;4847807;29;20133;-85
2022/08/03 01:52:45;;;;;;;17.52;3.35;;;;;;;19.43;72.83;100851.94;4857127;29;20055;-85
2022/08/03 01:55:14;;;;;;;3.08;2.80;;;;;;;19.42;72.69;100847.53;4859607;29;20068;-86
2022/08/03 01:57:46;;;;;;;3.90;2.85;;;;;;;19.41;73.05;100857.31;4847375;29;20113;-84
2022/08/03 02:00:18;;;;;;;4.28;2.67;;;;;;;19.39;73.30;100855.66;4860600;29;20109;-86
2022/08/03 02:02:52;;;;;;;3.92;2.85;;;;;;;19.36;73.37;100851.34;4870974;29;20134;-85
2022/08/03 02:05:20;;;;;;;2.80;2.60;;;;;;;19.35;73.18;100860.22;4875009;29;20073;-85
2022/08/03 02:07:48;;;;;;;2.63;2.53;;;;;;;19.32;73.48;100855.00;4846190;29;20450;-85
2022/08/03 02:10:21;;;;;;;3.15;2.70;;;;;;;19.31;73.59;100859.47;4859727;29;20054;-86
2022/08/03 02:12:49;;;;;;;3.03;2.83;;;;;;;19.28;73.54;100854.31;4845654;29;20060;-86
2022/08/03 02:15:18;;;;;;;3.28;2.90;;;;;;;19.26;73.47;100861.47;4846647;29;20042;-86
2022/08/03 02:17:47;;;;;;;2.97;2.78;;;;;;;19.25;73.45;100850.91;4843848;29;20069;-86
2022/08/03 02:20:16;;;;;;;5.85;2.88;;;;;;;19.21;73.90;100850.16;4873443;29;20553;-85
2022/08/03 02:22:48;;;;;;;3.22;3.00;;;;;;;19.22;73.83;100846.59;4849248;29;20132;-86
2022/08/03 02:25:18;;;;;;;4.45;3.03;;;;;;;19.21;73.89;100850.16;4863022;29;20389;-86
2022/08/03 02:28:07;;;;;;;3.08;2.88;;;;;;;19.17;74.14;100845.94;4876882;29;20432;-85
2022/08/03 02:30:39;;;;;;;2.90;2.70;;;;;;;19.15;74.06;100847.75;4846300;29;20144;-85
2022/08/03 02:33:11;;;;;;;2.75;2.55;;;;;;;19.14;73.97;100843.41;4875098;29;20108;-88
2022/08/03 02:35:40;;;;;;;2.95;2.67;;;;;;;19.11;74.09;100841.75;4878922;29;20477;-85
2022/08/03 02:38:11;;;;;;;3.75;2.60;;;;;;;19.10;74.01;100841.78;4859055;29;20045;-85
2022/08/03 02:40:40;;;;;;;3.17;2.88;;;;;;;19.07;74.39;100832.16;4869043;29;20103;-85
2022/08/03 02:43:18;;;;;;;3.70;2.80;;;;;;;19.06;74.42;100841.06;4864513;29;20060;-85
2022/08/03 02:45:48;;;;;;;4.55;2.65;;;;;;;19.03;74.45;100837.69;4865198;29;20131;-85
2022/08/03 02:48:21;;;;;;;2.63;2.42;;;;;;;19.00;74.51;100834.22;4865002;29;20141;-88
2022/08/03 02:50:49;;;;;;;2.53;2.40;;;;;;;18.99;74.49;100831.63;4868148;29;20105;-85
2022/08/03 02:53:18;;;;;;;2.40;2.30;;;;;;;18.96;74.58;100835.28;4867331;29;20114;-85
2022/08/03 02:55:49;;;;;;;2.85;2.65;;;;;;;18.96;74.57;100837.91;4846308;29;20115;-85
2022/08/03 02:58:21;;;;;;;3.58;2.60;;;;;;;18.97;74.39;100834.34;4860875;29;20045;-85
2022/08/03 03:00:48;;;;;;;2.83;2.63;;;;;;;18.96;74.47;100832.63;4848156;29;20436;-85
2022/08/03 03:03:19;;;;;;;3.10;2.60;;;;;;;18.96;74.52;100831.75;4850395;29;20304;-84
2022/08/03 03:05:46;;;;;;;3.40;3.10;;;;;;;18.94;74.18;100830.94;4847637;29;20049;-85
2022/08/03 03:08:15;;;;;;;3.85;2.83;;;;;;;18.94;74.09;100830.94;4847926;29;20136;-86
2022/08/03 03:10:43;;;;;;;2.60;2.40;;;;;;;18.90;74.30;100830.22;4859443;29;20200;-86
2022/08/03 03:13:11;;;;;;;3.67;2.95;;;;;;;18.89;74.30;100831.16;4852000;29;20045;-85
2022/08/03 03:15:39;;;;;;;4.85;2.80;;;;;;;18.88;74.42;100845.31;4862134;29;20053;-85
2022/08/03 03:18:08;;;;;;;2.60;2.50;;;;;;;18.84;74.42;100833.09;4848588;29;20037;-85
2022/08/03 03:20:39;;;;;;;3.88;3.13;;;;;;;18.84;74.33;100843.72;4860073;29;20049;-84
2022/08/03 03:23:08;;;;;;;2.53;2.38;;;;;;;18.81;74.73;100834.09;4849586;29;20055;-87
2022/08/03 03:25:36;;;;;;;2.67;2.53;;;;;;;18.79;74.61;100833.28;4846650;29;20076;-87
2022/08/03 03:28:05;;;;;;;3.03;2.83;;;;;;;18.76;74.68;100836.06;4831297;29;20044;-85
2022/08/03 03:30:34;;;;;;;2.92;2.70;;;;;;;18.78;74.90;100838.66;4877419;29;20417;-85
2022/08/03 03:33:10;;;;;;;2.58;2.45;;;;;;;18.76;74.63;100844.03;4867387;29;20056;-85
2022/08/03 03:35:37;;;;;;;3.78;3.22;;;;;;;18.74;74.92;100839.69;4876455;29;20075;-85
2022/08/03 03:38:04;;;;;;;5.05;3.10;;;;;;;18.71;74.82;100840.69;4844621;29;20068;-85
2022/08/03 03:40:43;;;;;;;3.10;2.75;;;;;;;18.72;75.08;100833.59;4847863;29;20434;-85
2022/08/03 03:43:12;;;;;;;2.85;2.65;;;;;;;18.70;74.76;100835.44;4848255;29;20056;-85
2022/08/03 03:45:46;;;;;;;5.80;2.78;;;;;;;18.71;75.07;100834.50;4859262;29;20057;-86
2022/08/03 03:48:13;;;;;;;2.72;2.53;;;;;;;18.68;74.66;100833.72;4844130;29;20067;-86
2022/08/03 03:50:41;;;;;;;3.72;2.70;;;;;;;18.68;74.51;100831.06;4861710;29;20068;-84
2022/08/03 03:53:15;;;;;;;3.00;2.78;;;;;;;18.66;74.70;100835.56;4847477;29;20053;-86
2022/08/03 03:55:42;;;;;;;;;;;;;;;18.66;74.83;100837.34;4851796;29;20454;-85
2022/08/03 03:58:09;;;;;;;3.08;2.72;;;;;;;18.65;74.36;100831.16;4873730;29;19931;-84
2022/08/03 04:00:36;;;;;;;3.35;3.15;;;;;;;18.66;74.42;100834.69;4867930;29;20052;-85
2022/08/03 04:03:04;;;;;;;5.50;2.50;;;;;;;18.66;74.28;100832.06;4897737;29;20049;-85
2022/08/03 04:11:14;;;;;;;2.30;2.20;;;;;;;18.70;73.91;100830.16;4864183;29;20419;-85
2022/08/03 04:14:27;;;;;;;2.67;2.40;;;;;;;18.71;73.69;100838.03;4898574;29;20148;-84
2022/08/03 04:17:04;;;;;;;2.65;2.55;;;;;;;18.72;73.63;100833.59;4885149;29;20076;-85
2022/08/03 04:19:42;;;;;;;3.30;3.00;;;;;;;18.75;73.31;100834.34;4867853;29;20052;-84
2022/08/03 04:22:22;;;;;;;2.10;1.98;;;;;;;18.78;73.01;100839.50;4880533;29;20055;-84
2022/08/03 04:25:07;;;;;;;4.68;3.10;;;;;;;18.82;73.14;100843.75;4878434;29;20044;-85
2022/08/03 04:27:40;;;;;;;4.45;2.20;;;;;;;18.87;72.60;100845.38;4861383;29;20075;-84
2022/08/03 04:30:09;;;;;;;7.03;6.32;;;;;;;18.92;72.14;100844.28;4848858;29;20479;-85
2022/08/03 04:32:38;;;;;;;3.60;2.50;;;;;;;18.97;72.23;100838.81;4862423;29;20060;-86
2022/08/03 04:35:07;;;;;;;4.93;2.85;;;;;;;19.01;71.86;100851.00;4862737;29;20101;-86
2022/08/03 04:37:50;;;;;;;3.38;2.42;;;;;;;19.07;71.50;100857.84;4878561;29;20068;-85
2022/08/03 04:40:25;;;;;;;2.60;2.40;;;;;;;19.11;71.33;100854.13;4874955;29;20072;-85
2022/08/03 04:42:55;;;;;;;2.42;2.22;;;;;;;19.15;71.25;100851.31;4879043;29;20049;-84
2022/08/03 04:45:24;;;;;;;3.28;2.58;;;;;;;19.22;71.00;100851.91;4865543;29;20143;-85
2022/08/03 04:47:52;;;;;;;3.67;3.17;;;;;;;19.28;70.93;100862.28;4863222;29;20085;-85
2022/08/03 04:50:19;;;;;;;3.22;2.88;;;;;;;19.33;70.86;100865.59;4863274;29;20236;-87
2022/08/03 04:52:50;;;;;;;6.97;2.35;;;;;;;19.39;70.43;100851.19;4865426;29;20056;-84
2022/08/03 04:55:29;;;;;;;3.83;3.15;;;;;;;19.47;70.11;100856.16;4881865;29;20056;-85
2022/08/03 04:57:56;;;;;;;7.60;3.38;;;;;;;19.53;69.83;100855.03;4864849;29;20052;-85
2022/08/03 05:00:24;;;;;;;3.58;3.28;;;;;;;19.61;69.55;100850.28;4867208;29;20443;-85
2022/08/03 05:02:58;;;;;;;5.72;5.03;;;;;;;19.69;69.28;100857.91;4893255;29;20450;-86
2022/08/03 05:05:33;;;;;;;5.38;3.28;;;;;;;19.73;69.20;100859.50;4894157;29;20036;-85
2022/08/03 05:07:59;;;;;;;3.78;2.53;;;;;;;19.75;69.07;100855.84;4874382;29;20041;-85
2022/08/03 05:10:26;;;;;;;3.97;2.85;;;;;;;19.78;68.89;100854.84;4875576;29;20064;-86
2022/08/03 05:12:53;;;;;;;3.70;2.53;;;;;;;19.82;68.74;100859.97;4882805;29;20066;-84
2022/08/03 05:15:19;;;;;;;2.67;2.10;;;;;;;19.86;68.57;100862.50;4869669;29;20201;-84
2022/08/03 05:17:47;;;;;;;2.83;2.22;;;;;;;19.90;68.60;100861.44;4879797;29;20100;-84
2022/08/03 05:20:14;;;;;;;2.55;2.22;;;;;;;19.96;68.34;100861.16;4893979;29;20044;-84
2022/08/03 05:22:41;;;;;;;6.88;5.45;;;;;;;20.01;68.14;100859.13;4865987;29;20160;-85
2022/08/03 05:25:09;;;;;;;3.90;2.78;;;;;;;20.08;68.05;100852.63;4869178;29;20245;-84
2022/08/03 05:27:38;;;;;;;5.00;3.80;;;;;;;20.15;67.70;100853.19;4865799;29;20044;-85
2022/08/03 05:30:06;;;;;;;2.45;2.30;;;;;;;20.20;67.38;100853.00;4877606;29;20080;-85
2022/08/03 05:32:32;;;;;;;2.45;2.35;;;;;;;20.28;67.25;100858.81;4867946;29;20082;-86
2022/08/03 05:34:59;;;;;;;4.20;3.08;;;;;;;20.35;66.95;100859.38;4878695;29;20095;-85
2022/08/03 05:37:26;;;;;;;2.38;2.17;;;;;;;20.41;66.73;100856.44;4886390;29;20045;-86
2022/08/03 05:39:53;;;;;;;2.72;2.53;;;;;;;20.49;66.43;100854.28;4857288;29;20040;-85
2022/08/03 05:42:19;;;;;;;1.60;1.60;;;;;;;20.55;66.00;100850.50;4887905;29;20052;-85
2022/08/03 05:44:46;;;;;;;3.63;3.08;;;;;;;20.61;65.79;100850.19;4864515;29;20057;-86
2022/08/03 05:47:14;;;;;;;4.72;3.60;;;;;;;20.68;65.78;100848.97;4875437;29;20075;-84
2022/08/03 05:49:41;;;;;;;2.40;2.20;;;;;;;20.73;65.73;100849.63;4873803;29;20064;-86
2022/08/03 05:52:08;;;;;;;5.43;2.40;;;;;;;20.79;65.36;100844.03;4881720;29;20056;-85
2022/08/03 05:54:35;;;;;;;2.15;1.95;;;;;;;20.85;65.22;100848.16;4890783;29;20057;-86
2022/08/03 05:57:02;;;;;;;2.35;2.22;;;;;;;20.91;65.10;100850.53;4872154;29;20065;-86
2022/08/03 05:59:28;;;;;;;2.70;2.50;;;;;;;20.99;64.94;100848.34;4863348;29;20056;-86
2022/08/03 06:01:55;;;;;;;4.05;3.67;;;;;;;21.07;64.66;100852.44;4853963;29;20135;-85
2022/08/03 06:04:22;;;;;;;3.38;3.13;;;;;;;21.14;64.42;100846.72;4873731;29;20147;-85
2022/08/03 06:06:49;;;;;;;3.92;3.65;;;;;;;21.23;64.08;100848.06;4858973;29;20102;-85
2022/08/03 06:09:17;;;;;;;4.82;4.40;;;;;;;21.30;63.96;100845.94;4858006;29;20053;-85
2022/08/03 06:11:45;;;;;;;4.53;3.08;;;;;;;21.38;63.63;100854.41;4844070;29;20144;-85
2022/08/03 06:14:11;;;;;;;2.80;2.60;;;;;;;21.45;63.47;100855.81;4853578;29;20446;-86
2022/08/03 06:16:38;;;;;;;2.30;2.17;;;;;;;21.53;63.28;100852.75;4861613;29;20053;-86
2022/08/03 06:19:05;;;;;;;3.75;2.33;;;;;;;21.61;63.04;100853.22;4842501;29;20606;-85
2022/08/03 06:21:32;;;;;;;2.38;1.80;;;;;;;21.69;62.97;100844.00;4861265;29;20053;-85
2022/08/03 06:23:59;;;;;;;2.55;1.80;;;;;;;21.76;62.71;100856.06;4858821;29;20072;-85
2022/08/03 06:26:27;;;;;;;2.67;2.58;;;;;;;21.83;62.56;100852.13;4840187;29;20080;-85
2022/08/03 06:28:57;;;;;;;4.55;2.20;;;;;;;21.91;62.28;100854.38;4858141;29;20057;-85
2022/08/03 06:31:28;;;;;;;4.50;3.78;;;;;;;22.02;61.61;100851.13;4873862;29;20611;-86
2022/08/03 06:33:54;;;;;;;2.80;2.55;;;;;;;22.16;61.11;100853.06;4845779;29;20084;-86
2022/08/03 06:36:21;;;;;;;2.40;2.25;;;;;;;22.29;60.55;100859.44;4848384;29;20256;-86
2022/08/03 06:38:48;;;;;;;2.33;2.22;;;;;;;22.45;60.38;100848.81;4874547;29;20069;-85
2022/08/03 06:41:17;;;;;;;3.40;2.90;;;;;;;22.62;59.66;100854.06;4844178;29;20419;-84
2022/08/03 06:43:44;;;;;;;3.05;2.85;;;;;;;22.80;58.86;100859.28;4848378;29;20064;-86
2022/08/03 06:46:11;;;;;;;2.70;2.50;;;;;;;22.95;58.67;100860.22;4845806;29;20096;-86
2022/08/03 06:48:37;;;;;;;2.08;1.85;;;;;;;23.09;57.78;100868.31;4845382;29;20147;-85
2022/08/03 06:51:04;;;;;;;3.33;2.55;;;;;;;23.22;57.41;100864.94;4847087;29;20064;-85
2022/08/03 06:53:31;;;;;;;3.17;2.20;;;;;;;23.33;56.82;100866.97;4859640;29;20049;-86
2022/08/03 06:55:58;;;;;;;1.65;1.55;;;;;;;23.43;56.91;100879.69;4844292;29;20059;-86
2022/08/03 06:58:24;;;;;;;4.95;2.03;;;;;;;23.53;56.93;100876.47;4856302;29;20088;-85
2022/08/03 07:00:51;;;;;;;1.98;1.88;;;;;;;23.67;56.40;100870.31;4859448;29;20055;-86
2022/08/03 07:03:18;;;;;;;2.05;1.95;;;;;;;23.82;55.87;100865.81;4860645;29;20125;-86
2022/08/03 07:05:46;;;;;;;2.90;1.73;;;;;;;23.98;55.51;100869.31;4862903;29;20323;-86
2022/08/03 07:08:15;;;;;;;2.60;1.92;;;;;;;24.21;55.36;100869.66;4858182;29;20061;-86
2022/08/03 07:10:43;;;;;;;2.78;2.00;;;;;;;24.51;54.53;100869.56;4860618;29;20052;-88
2022/08/03 07:13:10;;;;;;;2.15;2.05;;;;;;;24.87;53.18;100872.63;4883664;29;20417;-88
2022/08/03 07:15:37;;;;;;;4.57;2.10;;;;;;;25.28;51.87;100874.38;4865288;29;20052;-87
2022/08/03 07:18:06;;;;;;;3.45;2.17;;;;;;;25.63;50.89;100876.50;4864878;29;20405;-87
2022/08/03 07:20:33;;;;;;;3.55;2.00;;;;;;;25.98;50.46;100873.16;4859174;29;20140;-89
2022/08/03 07:23:00;;;;;;;3.67;1.67;;;;;;;26.26;49.50;100868.56;4867093;29;20049;-88
2022/08/03 07:25:27;;;;;;;2.10;1.90;;;;;;;26.49;47.89;100876.75;4866480;29;20081;-88
2022/08/03 07:27:54;;;;;;;4.03;1.50;;;;;;;26.56;48.44;100878.06;4880928;29;20056;-87
2022/08/03 07:30:20;;;;;;;5.22;1.80;;;;;;;26.72;47.72;100875.13;4865066;29;20041;-85
2022/08/03 07:32:47;;;;;;;2.25;1.52;;;;;;;26.98;47.29;100872.34;4879407;29;20044;-85
2022/08/03 07:35:16;;;;;;;2.92;1.40;;;;;;;27.39;46.69;100882.66;4863475;29;20117;-86
2022/08/03 07:37:43;;;;;;;2.03;1.30;;;;;;;28.00;45.45;100875.31;4859400;29;20091;-87
2022/08/03 07:40:11;;;;;;;1.52;1.42;;;;;;;28.53;44.43;100874.69;4862518;29;20052;-86
2022/08/03 07:42:37;;;;;;;1.73;1.50;;;;;;;29.03;43.22;100871.50;4880105;29;20087;-87
2022/08/03 07:45:05;;;;;;;1.88;1.30;;;;;;;29.45;42.18;100870.72;4880274;29;20048;-86
2022/08/03 07:47:32;;;;;;;4.18;1.65;;;;;;;29.84;41.36;100876.34;4864331;29;20053;-85
2022/08/03 07:49:58;;;;;;;1.17;1.13;;;;;;;30.22;40.58;100871.28;4859058;29;20071;-86
2022/08/03 07:55:10;;;;;;;1.45;1.35;;;;;;;30.74;38.83;100880.13;4851752;29;20040;-86
2022/08/03 07:57:37;;;;;;;1.25;1.15;;;;;;;30.88;38.49;100876.16;4864299;29;20064;-85
2022/08/03 08:00:16;;;;;;;2.03;1.60;;;;;;;31.16;37.85;100879.06;4901010;29;20047;-87
2022/08/03 08:02:45;;;;;;;1.00;1.00;;;;;;;31.33;37.98;100882.88;4900758;29;20120;-86
2022/08/03 08:05:13;;;;;;;1.30;1.20;;;;;;;31.74;37.56;100877.28;4901676;29;20059;-87
2022/08/03 08:07:40;;;;;;;1.20;1.10;;;;;;;32.26;36.43;100877.66;4867262;29;20099;-87
2022/08/03 08:10:09;;;;;;;1.48;1.38;;;;;;;32.84;34.96;100880.19;4850114;29;20049;-86
2022/08/03 08:12:42;;;;;;;2.08;1.02;;;;;;;33.19;35.12;100878.47;4888523;29;20319;-87
2022/08/03 08:15:12;;;;;;;2.25;1.33;;;;;;;33.23;34.57;100871.72;4861959;29;20081;-87
2022/08/03 08:17:49;;;;;;;2.92;1.45;;;;;;;33.42;33.87;100871.56;4867573;29;20076;-88
2022/08/03 08:20:28;;;;;;;1.00;1.00;;;;;;;33.38;33.99;100877.50;4868161;29;20041;-87
2022/08/03 08:22:58;;;;;;;1.30;1.00;;;;;;;33.61;32.98;100870.53;4881916;29;20053;-88
2022/08/03 08:25:26;;;;;;;1.67;0.80;;;;;;;33.49;32.84;100866.34;4879990;29;20360;-87
2022/08/03 08:27:53;;;;;;;2.22;1.00;;;;;;;33.32;33.43;100876.25;4868072;29;20140;-88
2022/08/03 08:30:23;;;;;;;2.88;0.93;;;;;;;33.44;32.71;100876.84;4866960;29;20087;-87
2022/08/03 08:32:51;;;;;;;1.10;1.02;;;;;;;33.62;32.52;100871.38;4883116;29;20048;-88
2022/08/03 08:35:18;;;;;;;4.47;1.15;;;;;;;33.78;32.86;100865.19;4883554;29;20056;-88
2022/08/03 08:37:47;;;;;;;1.45;1.38;;;;;;;34.31;31.63;100865.97;4884817;29;20056;-87
2022/08/03 08:40:13;;;;;;;1.15;1.02;;;;;;;34.83;31.03;100866.81;4850653;29;20059;-87
2022/08/03 08:42:44;;;;;;;4.68;0.95;;;;;;;35.04;31.05;100867.19;4870437;29;20112;-88
2022/08/03 08:45:13;;;;;;;3.65;1.17;;;;;;;35.63;29.51;100870.75;4867141;29;20417;-89
2022/08/03 08:47:45;;;;;;;4.22;0.77;;;;;;;36.02;28.94;100879.03;4865415;29;20076;-88
2022/08/03 08:50:21;;;;;;;3.53;1.00;;;;;;;35.88;28.64;100872.41;4872002;29;20057;-87
2022/08/03 08:52:50;;;;;;;1.63;0.75;;;;;;;35.28;29.12;100869.06;4882347;29;20497;-88
2022/08/03 08:55:23;;;;;;;3.47;0.90;;;;;;;34.82;30.02;100871.38;4872424;29;20052;-88
2022/08/03 08:58:05;;;;;;;1.08;0.75;;;;;;;35.05;30.05;100873.50;4876501;29;20052;-86
2022/08/03 09:00:32;;;;;;;3.55;1.17;;;;;;;35.17;29.42;100868.56;4864590;29;20049;-87
2022/08/03 09:03:00;;;;;;;2.55;0.90;;;;;;;35.20;29.85;100874.50;4890847;29;20052;-87
2022/08/03 09:05:30;;;;;;;2.67;1.33;;;;;;;35.81;29.39;100871.38;4863564;29;20079;-86
2022/08/03 09:08:03;;;;;;;3.15;0.88;;;;;;;36.23;28.88;100869.38;4898615;29;20052;-89
2022/08/03 09:10:33;;;;;;;1.63;1.40;;;;;;;36.07;27.70;100881.19;4881308;29;20056;-87
2022/08/03 09:13:03;;;;;;;3.33;1.00;;;;;;;35.57;28.76;100875.84;4857323;29;20045;-87
2022/08/03 09:15:32;;;;;;;1.83;0.70;;;;;;;36.18;28.30;100866.31;4880622;29;20064;-88
2022/08/03 09:18:04;;;;;;;1.90;1.17;;;;;;;37.37;26.82;100858.75;4892368;29;20072;-88
2022/08/03 09:20:35;;;;;;;6.38;1.05;;;;;;;38.08;25.72;100867.56;4861746;29;20049;-88
2022/08/03 09:23:10;;;;;;;4.00;1.30;;;;;;;37.56;26.14;100868.31;4864001;29;20053;-89
2022/08/03 09:25:44;;;;;;;1.38;1.08;;;;;;;37.55;26.03;100872.06;4876511;29;20052;-88
2022/08/03 09:28:15;;;;;;;3.58;1.20;;;;;;;37.35;26.08;100870.91;4881873;29;20059;-87
2022/08/03 09:30:58;;;;;;;2.35;1.27;;;;;;;37.67;26.48;100872.44;4877916;29;20044;-89
2022/08/03 09:33:25;;;;;;;4.30;1.08;;;;;;;38.84;25.07;100864.47;4895298;29;20057;-86
2022/08/03 09:35:55;;;;;;;3.58;1.15;;;;;;;39.78;24.07;100857.03;4878633;29;20512;-90
2022/08/03 09:38:32;;;;;;;2.78;0.70;;;;;;;40.14;23.50;100859.59;4891989;29;20076;-88
2022/08/03 09:41:20;;;;;;;10.15;3.33;;;;;;;40.93;22.46;100851.75;4875908;29;20124;-89
2022/08/03 09:43:55;;;;;;;4.85;1.40;;;;;;;41.58;21.78;100859.38;4871612;29;20077;-90
2022/08/03 09:46:23;;;;;;;1.75;0.80;;;;;;;41.70;21.76;100861.47;4884676;29;20114;-88
2022/08/03 09:48:54;;;;;;;2.20;1.05;;;;;;;40.61;22.08;100862.50;4864074;29;20045;-90
2022/08/03 09:51:25;;;;;;;1.88;1.08;;;;;;;39.11;23.16;100865.56;4878982;29;20164;-89
2022/08/03 09:56:52;;;;;;;1.30;0.47;;;;;;;39.63;23.27;100858.00;4875541;29;19958;-89
2022/08/03 09:59:43;;;;;;;2.38;0.68;;;;;;;40.21;22.09;100856.88;4877905;29;20600;-88
2022/08/03 10:02:33;;;;;;;2.33;1.08;;;;;;;40.14;22.41;100855.97;4875081;29;20071;-88
2022/08/03 10:05:35;;;;;;;4.40;0.85;;;;;;;41.09;21.15;100853.25;4892024;29;20084;-87
2022/08/03 10:08:15;;;;;;;2.05;1.00;;;;;;;40.43;21.90;100856.72;4885573;29;20041;-87
2022/08/03 10:11:02;;;;;;;3.58;0.95;;;;;;;39.63;22.58;100858.00;4885666;29;20044;-87
2022/08/03 10:13:48;;;;;;;1.50;0.93;;;;;;;39.35;23.02;100849.81;4886597;29;20041;-89
2022/08/03 10:16:18;;;;;;;2.13;0.88;;;;;;;39.23;23.04;100849.50;4870697;29;20049;-87
2022/08/03 10:19:04;;;;;;;3.35;0.70;;;;;;;39.63;22.84;100848.97;4867765;29;20055;-87
2022/08/03 10:21:57;;;;;;;2.55;1.20;;;;;;;40.61;22.21;100850.66;4876464;29;20052;-87
2022/08/03 10:24:36;;;;;;;2.22;1.13;;;;;;;41.17;21.49;100849.47;4891734;29;20139;-88
2022/08/03 10:27:10;;;;;;;1.02;0.80;;;;;;;42.17;20.29;100844.84;4893285;29;20063;-87
2022/08/03 10:29:48;;;;;;;2.70;1.17;;;;;;;42.73;20.11;100840.53;4891170;29;20073;-87
2022/08/03 10:32:49;;;;;;;0.77;0.77;;;;;;;41.69;20.22;100835.03;4889766;29;20049;-88
2022/08/03 10:35:34;;;;;;;3.17;1.05;;;;;;;41.50;21.02;100838.47;4881726;29;20045;-87
2022/08/03 10:38:18;;;;;;;0.73;0.73;;;;;;;41.28;20.61;100831.50;4886983;29;20049;-87
2022/08/03 10:41:07;;;;;;;1.20;0.82;;;;;;;41.24;20.54;100833.84;4868452;29;20073;-87
2022/08/03 10:47:43;;;;;;;1.15;1.10;;;;;;;40.84;21.60;100829.16;4875061;29;20112;-88
2022/08/03 10:50:13;;;;;;;1.83;1.20;;;;;;;41.58;20.94;100818.16;4885932;29;20044;-89
2022/08/03 10:53:13;;;;;;;1.05;1.00;;;;;;;42.85;20.27;100816.69;4885241;29;20052;-89
2022/08/03 10:58:52;;;;;;;1.10;1.10;;;;;;;43.87;18.48;100817.38;4900938;29;20062;-87
2022/08/03 11:02:12;;;;;;;;;;;;;;;;;;;;;
2022/08/03 11:04:54;;;;;;;1.98;1.20;;;;;;;44.30;18.59;100821.91;4907016;29;20121;-91
2022/08/03 11:07:25;;;;;;;2.75;1.15;;;;;;;44.75;17.74;100813.22;4878413;29;20041;-89
2022/08/03 11:09:57;;;;;;;1.02;0.85;;;;;;;45.18;17.67;100815.91;4878311;29;20055;-89
2022/08/03 11:12:30;;;;;;;;;;;;;;;43.47;18.55;100814.00;4891636;29;20049;-89
2022/08/03 11:15:00;;;;;;;2.22;1.17;;;;;;;42.66;20.11;100813.03;4870481;29;19924;-89
2022/08/03 11:17:27;;;;;;;2.40;1.20;;;;;;;42.91;19.84;100806.72;4891899;29;20468;-87
2022/08/03 11:19:54;;;;;;;3.10;1.05;;;;;;;44.03;19.14;100811.28;4867945;29;20586;-90
2022/08/03 11:22:23;;;;;;;1.48;1.15;;;;;;;44.73;17.87;100800.72;4883043;29;20040;-89
2022/08/03 11:24:55;;;;;;;1.98;1.20;;;;;;;44.71;17.40;100802.91;4867752;29;20049;-90
2022/08/03 11:27:34;;;;;;;2.85;1.48;;;;;;;44.15;17.94;100808.56;4901546;29;20052;-89
2022/08/03 11:30:18;;;;;;;1.23;1.13;;;;;;;43.45;19.02;100815.31;4886890;29;20053;-88
2022/08/03 11:32:46;;;;;;;1.67;1.30;;;;;;;43.97;18.50;100803.91;4880940;29;20059;-88
2022/08/03 11:35:18;;;;;;;0.88;0.88;;;;;;;44.02;18.25;100792.19;4901221;29;20033;-90
2022/08/03 11:37:54;;;;;;;3.70;1.52;;;;;;;42.78;19.16;100800.22;4883246;29;20326;-89
2022/08/03 11:40:51;;;;;;;4.72;1.05;;;;;;;41.61;19.87;100792.16;4889818;29;20041;-88
2022/08/03 11:43:30;;;;;;;3.25;1.58;;;;;;;41.60;20.29;100784.97;4891602;29;20074;-90
2022/08/03 11:46:16;;;;;;;4.05;1.10;;;;;;;40.97;20.69;100797.31;4884593;29;20153;-90
2022/08/03 11:48:49;;;;;;;4.30;0.85;;;;;;;41.42;20.46;100794.75;4878435;29;20056;-90
2022/08/03 11:51:39;;;;;;;4.00;1.00;;;;;;;42.01;19.46;100791.16;4887526;29;20136;-90
2022/08/03 11:54:12;;;;;;;3.05;1.00;;;;;;;42.73;18.63;100800.06;4885689;29;20045;-89
2022/08/03 11:56:48;;;;;;;0.65;0.65;;;;;;;42.36;18.76;100801.78;4876983;29;20044;-90
2022/08/03 11:59:33;;;;;;;4.20;1.33;;;;;;;43.06;18.49;100801.66;4871122;29;20060;-88
2022/08/03 12:02:11;;;;;;;1.13;0.70;;;;;;;44.03;17.69;100794.72;4882585;29;20123;-89
2022/08/03 12:05:00;;;;;;;0.90;0.88;;;;;;;44.69;17.12;100785.69;4854318;29;20075;-89
2022/08/03 12:07:29;;;;;;;0.95;0.95;;;;;;;44.68;17.38;100797.78;4853861;29;20067;-87
2022/08/03 12:10:15;;;;;;;3.47;0.93;;;;;;;45.13;16.87;100782.63;4866873;29;20055;-88